sensor_id;sensor_type;location;lat;lon;timestamp;pressure;altitude;pressure_sealevel;temperature;humidity
48882;BME280;57063;51.406;-2.402;2023-08-01T00:00:59;99154.06;;;14.76;100.00
48882;BME280;57063;51.406;-2.402;2023-08-01T00:03:25;99147.00;;;14.68;100.00
48882;BME280;57063;51.406;-2.402;2023-08-01T00:05:50;99155.31;;;14.72;100.00
48882;BME280;57063;51.406;-2.402;2023-08-01T00:08:15;99149.25;;;14.81;100.00
48882;BME280;57063;51.406;-2.402;2023-08-01T00:10:41;99141.56;;;14.62;100.00
48882;BME280;57063;51.406;-2.402;2023-08-01T00:13:07;99143.19;;;14.63;100.00
48882;BME280;57063;51.406;-2.402;2023-08-01T00:15:32;99148.19;;;14.74;100.00
48882;BME280;57063;51.406;-2.402;2023-08-01T00:17:58;99152.47;;;14.65;100.00
48882;BME280;57063;51.406;-2.402;2023-08-01T00:20:23;99157.34;;;14.78;100.00
48882;BME280;57063;51.406;-2.402;2023-08-01T00:22:49;99159.03;;;14.87;100.00
48882;BME280;57063;51.406;-2.402;2023-08-01T00:25:14;99155.47;;;14.88;100.00
48882;BME280;57063;51.406;-2.402;2023-08-01T00:27:39;99157.03;;;14.81;100.00
48882;BME280;57063;51.406;-2.402;2023-08-01T00:30:05;99166.00;;;14.87;100.00
48882;BME280;57063;51.406;-2.402;2023-08-01T00:32:31;99159.00;;;14.69;100.00
48882;BME280;57063;51.406;-2.402;2023-08-01T00:34:56;99169.03;;;14.82;100.00
48882;BME280;57063;51.406;-2.402;2023-08-01T00:37:22;99178.69;;;14.72;100.00
48882;BME280;57063;51.406;-2.402;2023-08-01T00:39:47;99174.66;;;14.60;100.00
48882;BME280;57063;51.406;-2.402;2023-08-01T00:42:13;99181.88;;;14.66;100.00
48882;BME280;57063;51.406;-2.402;2023-08-01T00:44:38;99176.44;;;14.59;100.00
48882;BME280;57063;51.406;-2.402;2023-08-01T00:47:04;99175.88;;;14.55;100.00
48882;BME280;57063;51.406;-2.402;2023-08-01T00:49:30;99183.25;;;14.50;100.00
48882;BME280;57063;51.406;-2.402;2023-08-01T00:51:55;99179.59;;;14.43;100.00
48882;BME280;57063;51.406;-2.402;2023-08-01T00:54:21;99182.31;;;14.51;100.00
48882;BME280;57063;51.406;-2.402;2023-08-01T00:56:46;99187.25;;;14.54;100.00
48882;BME280;57063;51.406;-2.402;2023-08-01T00:59:12;99183.94;;;14.52;100.00
48882;BME280;57063;51.406;-2.402;2023-08-01T01:01:38;99180.44;;;14.53;100.00
48882;BME280;57063;51.406;-2.402;2023-08-01T01:04:04;99185.28;;;14.66;100.00
48882;BME280;57063;51.406;-2.402;2023-08-01T01:06:48;99186.09;;;14.67;100.00
48882;BME280;57063;51.406;-2.402;2023-08-01T01:09:17;99194.84;;;14.66;100.00
48882;BME280;57063;51.406;-2.402;2023-08-01T01:11:44;99189.41;;;14.59;100.00
48882;BME280;57063;51.406;-2.402;2023-08-01T01:14:09;99190.09;;;14.61;100.00
48882;BME280;57063;51.406;-2.402;2023-08-01T01:16:35;99195.66;;;14.66;100.00
48882;BME280;57063;51.406;-2.402;2023-08-01T01:19:00;99203.72;;;14.73;100.00
48882;BME280;57063;51.406;-2.402;2023-08-01T01:21:25;99197.59;;;14.64;100.00
48882;BME280;57063;51.406;-2.402;2023-08-01T01:23:51;99211.09;;;14.68;100.00
48882;BME280;57063;51.406;-2.402;2023-08-01T01:26:18;99206.50;;;14.62;100.00
48882;BME280;57063;51.406;-2.402;2023-08-01T01:28:48;99215.09;;;14.62;100.00
48882;BME280;57063;51.406;-2.402;2023-08-01T01:31:15;99223.31;;;14.58;100.00
48882;BME280;57063;51.406;-2.402;2023-08-01T01:33:41;99216.47;;;14.84;100.00
48882;BME280;57063;51.406;-2.402;2023-08-01T01:36:06;99213.13;;;14.74;100.00
48882;BME280;57063;51.406;-2.402;2023-08-01T01:38:32;99214.34;;;14.70;100.00
48882;BME280;57063;51.406;-2.402;2023-08-01T01:40:57;99219.28;;;14.73;100.00
48882;BME280;57063;51.406;-2.402;2023-08-01T01:43:22;99220.53;;;14.69;100.00
48882;BME280;57063;51.406;-2.402;2023-08-01T01:45:48;99219.47;;;14.62;100.00
48882;BME280;57063;51.406;-2.402;2023-08-01T01:48:13;99222.06;;;14.62;100.00
48882;BME280;57063;51.406;-2.402;2023-08-01T01:50:38;99216.31;;;14.58;100.00
48882;BME280;57063;51.406;-2.402;2023-08-01T01:53:04;99216.34;;;14.48;100.00
48882;BME280;57063;51.406;-2.402;2023-08-01T01:55:29;99211.81;;;14.50;100.00
48882;BME280;57063;51.406;-2.402;2023-08-01T01:57:54;99215.34;;;14.69;100.00
48882;BME280;57063;51.406;-2.402;2023-08-01T02:00:20;99212.38;;;14.82;100.00
48882;BME280;57063;51.406;-2.402;2023-08-01T02:02:45;99204.19;;;14.59;100.00
48882;BME280;57063;51.406;-2.402;2023-08-01T02:05:10;99211.00;;;14.50;100.00
48882;BME280;57063;51.406;-2.402;2023-08-01T02:07:36;99211.06;;;14.40;100.00
48882;BME280;57063;51.406;-2.402;2023-08-01T02:10:02;99216.28;;;14.30;100.00
48882;BME280;57063;51.406;-2.402;2023-08-01T02:12:27;99203.97;;;14.32;100.00
48882;BME280;57063;51.406;-2.402;2023-08-01T02:14:57;99205.38;;;14.27;100.00
48882;BME280;57063;51.406;-2.402;2023-08-01T02:17:22;99203.03;;;14.24;100.00
48882;BME280;57063;51.406;-2.402;2023-08-01T02:19:47;99206.63;;;14.23;100.00
48882;BME280;57063;51.406;-2.402;2023-08-01T02:22:13;99203.72;;;14.26;100.00
48882;BME280;57063;51.406;-2.402;2023-08-01T02:24:38;99199.22;;;14.28;100.00
48882;BME280;57063;51.406;-2.402;2023-08-01T02:27:04;99205.16;;;14.10;100.00
48882;BME280;57063;51.406;-2.402;2023-08-01T02:29:29;99203.53;;;14.09;100.00
48882;BME280;57063;51.406;-2.402;2023-08-01T02:31:54;99200.78;;;14.01;100.00
48882;BME280;57063;51.406;-2.402;2023-08-01T02:34:21;99201.38;;;13.95;100.00
48882;BME280;57063;51.406;-2.402;2023-08-01T02:36:46;99200.41;;;13.96;100.00
48882;BME280;57063;51.406;-2.402;2023-08-01T02:39:12;99197.81;;;13.96;100.00
48882;BME280;57063;51.406;-2.402;2023-08-01T02:41:37;99200.00;;;13.91;100.00
48882;BME280;57063;51.406;-2.402;2023-08-01T02:44:03;99196.44;;;13.92;100.00
48882;BME280;57063;51.406;-2.402;2023-08-01T02:46:28;99197.56;;;13.80;100.00
48882;BME280;57063;51.406;-2.402;2023-08-01T02:48:55;99197.16;;;13.75;100.00
48882;BME280;57063;51.406;-2.402;2023-08-01T02:51:20;99188.44;;;13.76;100.00
48882;BME280;57063;51.406;-2.402;2023-08-01T02:53:46;99188.03;;;13.70;100.00
48882;BME280;57063;51.406;-2.402;2023-08-01T02:56:11;99187.88;;;13.72;100.00
48882;BME280;57063;51.406;-2.402;2023-08-01T02:58:36;99195.38;;;13.65;100.00
48882;BME280;57063;51.406;-2.402;2023-08-01T03:01:06;99199.75;;;13.75;100.00
48882;BME280;57063;51.406;-2.402;2023-08-01T03:03:34;99196.75;;;13.69;100.00
48882;BME280;57063;51.406;-2.402;2023-08-01T03:06:01;99203.84;;;13.67;100.00
48882;BME280;57063;51.406;-2.402;2023-08-01T03:08:26;99208.22;;;13.77;100.00
48882;BME280;57063;51.406;-2.402;2023-08-01T03:10:54;99197.81;;;13.86;100.00
48882;BME280;57063;51.406;-2.402;2023-08-01T03:13:19;99202.63;;;13.81;100.00
48882;BME280;57063;51.406;-2.402;2023-08-01T03:15:45;99210.50;;;13.89;100.00
48882;BME280;57063;51.406;-2.402;2023-08-01T03:18:10;99203.59;;;13.80;100.00
48882;BME280;57063;51.406;-2.402;2023-08-01T03:20:36;99195.66;;;13.82;100.00
48882;BME280;57063;51.406;-2.402;2023-08-01T03:23:01;99200.00;;;13.91;100.00
48882;BME280;57063;51.406;-2.402;2023-08-01T03:25:27;99207.34;;;14.05;100.00
48882;BME280;57063;51.406;-2.402;2023-08-01T03:27:52;99201.50;;;13.94;100.00
48882;BME280;57063;51.406;-2.402;2023-08-01T03:30:20;99198.09;;;13.93;100.00
48882;BME280;57063;51.406;-2.402;2023-08-01T03:32:46;99195.31;;;14.04;100.00
48882;BME280;57063;51.406;-2.402;2023-08-01T03:35:11;99191.81;;;13.96;100.00
48882;BME280;57063;51.406;-2.402;2023-08-01T03:37:39;99197.81;;;13.96;100.00
48882;BME280;57063;51.406;-2.402;2023-08-01T03:40:05;99193.84;;;13.92;100.00
48882;BME280;57063;51.406;-2.402;2023-08-01T03:42:33;99191.00;;;13.95;100.00
48882;BME280;57063;51.406;-2.402;2023-08-01T03:44:59;99181.34;;;13.78;100.00
48882;BME280;57063;51.406;-2.402;2023-08-01T03:47:24;99181.34;;;13.78;100.00
48882;BME280;57063;51.406;-2.402;2023-08-01T03:49:50;99175.19;;;13.79;100.00
48882;BME280;57063;51.406;-2.402;2023-08-01T03:52:15;99184.06;;;13.76;100.00
48882;BME280;57063;51.406;-2.402;2023-08-01T03:54:40;99191.03;;;13.76;100.00
48882;BME280;57063;51.406;-2.402;2023-08-01T03:57:06;99195.66;;;13.72;100.00
48882;BME280;57063;51.406;-2.402;2023-08-01T03:59:31;99198.81;;;13.76;100.00
48882;BME280;57063;51.406;-2.402;2023-08-01T04:01:57;99202.63;;;13.72;100.00
48882;BME280;57063;51.406;-2.402;2023-08-01T04:04:22;99212.88;;;13.54;100.00
48882;BME280;57063;51.406;-2.402;2023-08-01T04:06:48;99210.81;;;13.57;100.00
48882;BME280;57063;51.406;-2.402;2023-08-01T04:09:13;99208.78;;;13.61;100.00
48882;BME280;57063;51.406;-2.402;2023-08-01T04:11:40;99217.66;;;13.58;100.00
48882;BME280;57063;51.406;-2.402;2023-08-01T04:14:05;99214.38;;;13.56;100.00
48882;BME280;57063;51.406;-2.402;2023-08-01T04:16:30;99206.31;;;13.59;100.00
48882;BME280;57063;51.406;-2.402;2023-08-01T04:18:56;99211.22;;;13.62;100.00
48882;BME280;57063;51.406;-2.402;2023-08-01T04:21:21;99219.81;;;13.53;100.00
48882;BME280;57063;51.406;-2.402;2023-08-01T04:23:46;99212.59;;;13.66;100.00
48882;BME280;57063;51.406;-2.402;2023-08-01T04:26:12;99225.00;;;13.63;100.00
48882;BME280;57063;51.406;-2.402;2023-08-01T04:28:37;99212.72;;;13.75;100.00
48882;BME280;57063;51.406;-2.402;2023-08-01T04:31:03;99210.13;;;13.65;100.00
48882;BME280;57063;51.406;-2.402;2023-08-01T04:33:28;99205.78;;;13.56;100.00
48882;BME280;57063;51.406;-2.402;2023-08-01T04:35:53;99211.78;;;13.56;100.00
48882;BME280;57063;51.406;-2.402;2023-08-01T04:38:19;99208.22;;;13.67;100.00
48882;BME280;57063;51.406;-2.402;2023-08-01T04:40:44;99202.50;;;13.73;100.00
48882;BME280;57063;51.406;-2.402;2023-08-01T04:43:11;99210.28;;;13.63;100.00
48882;BME280;57063;51.406;-2.402;2023-08-01T04:45:37;99214.63;;;13.73;100.00
48882;BME280;57063;51.406;-2.402;2023-08-01T04:48:02;99221.31;;;13.65;100.00
48882;BME280;57063;51.406;-2.402;2023-08-01T04:50:28;99217.91;;;13.65;100.00
48882;BME280;57063;51.406;-2.402;2023-08-01T04:52:53;99217.50;;;13.60;100.00
48882;BME280;57063;51.406;-2.402;2023-08-01T04:55:19;99208.63;;;13.62;100.00
48882;BME280;57063;51.406;-2.402;2023-08-01T04:57:44;99210.53;;;13.60;100.00
48882;BME280;57063;51.406;-2.402;2023-08-01T05:00:10;99220.38;;;13.66;100.00
48882;BME280;57063;51.406;-2.402;2023-08-01T05:02:36;99222.16;;;13.76;100.00
48882;BME280;57063;51.406;-2.402;2023-08-01T05:05:01;99224.59;;;13.67;100.00
48882;BME280;57063;51.406;-2.402;2023-08-01T05:07:26;99229.53;;;13.70;100.00
48882;BME280;57063;51.406;-2.402;2023-08-01T05:09:52;99235.66;;;13.79;100.00
48882;BME280;57063;51.406;-2.402;2023-08-01T05:12:17;99234.56;;;13.82;100.00
48882;BME280;57063;51.406;-2.402;2023-08-01T05:14:42;99238.81;;;13.83;100.00
48882;BME280;57063;51.406;-2.402;2023-08-01T05:17:08;99237.81;;;13.84;100.00
48882;BME280;57063;51.406;-2.402;2023-08-01T05:19:33;99245.31;;;13.87;100.00
48882;BME280;57063;51.406;-2.402;2023-08-01T05:21:59;99234.41;;;13.93;100.00
48882;BME280;57063;51.406;-2.402;2023-08-01T05:24:24;99236.00;;;14.04;100.00
48882;BME280;57063;51.406;-2.402;2023-08-01T05:26:49;99231.53;;;13.96;100.00
48882;BME280;57063;51.406;-2.402;2023-08-01T05:29:15;99240.94;;;13.97;100.00
48882;BME280;57063;51.406;-2.402;2023-08-01T05:31:40;99242.56;;;14.08;100.00
48882;BME280;57063;51.406;-2.402;2023-08-01T05:34:05;99246.38;;;14.13;100.00
48882;BME280;57063;51.406;-2.402;2023-08-01T05:36:31;99241.28;;;14.31;100.00
48882;BME280;57063;51.406;-2.402;2023-08-01T05:38:56;99245.22;;;14.35;100.00
48882;BME280;57063;51.406;-2.402;2023-08-01T05:41:22;99246.63;;;14.30;100.00
48882;BME280;57063;51.406;-2.402;2023-08-01T05:43:48;99246.31;;;14.33;100.00
48882;BME280;57063;51.406;-2.402;2023-08-01T05:46:14;99243.44;;;14.36;100.00
48882;BME280;57063;51.406;-2.402;2023-08-01T05:48:39;99243.59;;;14.34;100.00
48882;BME280;57063;51.406;-2.402;2023-08-01T05:51:05;99245.22;;;14.35;100.00
48882;BME280;57063;51.406;-2.402;2023-08-01T05:53:30;99254.00;;;14.25;100.00
48882;BME280;57063;51.406;-2.402;2023-08-01T05:55:56;99250.72;;;14.23;100.00
48882;BME280;57063;51.406;-2.402;2023-08-01T05:58:21;99253.13;;;14.44;100.00
48882;BME280;57063;51.406;-2.402;2023-08-01T06:00:46;99254.13;;;14.33;100.00
48882;BME280;57063;51.406;-2.402;2023-08-01T06:03:12;99252.28;;;14.43;100.00
48882;BME280;57063;51.406;-2.402;2023-08-01T06:05:37;99258.84;;;14.47;100.00
48882;BME280;57063;51.406;-2.402;2023-08-01T06:08:03;99258.31;;;14.44;100.00
48882;BME280;57063;51.406;-2.402;2023-08-01T06:10:29;99249.88;;;14.42;100.00
48882;BME280;57063;51.406;-2.402;2023-08-01T06:12:54;99256.38;;;14.46;100.00
48882;BME280;57063;51.406;-2.402;2023-08-01T06:15:20;99252.41;;;14.51;100.00
48882;BME280;57063;51.406;-2.402;2023-08-01T06:17:46;99266.13;;;14.53;100.00
48882;BME280;57063;51.406;-2.402;2023-08-01T06:20:12;99267.03;;;14.62;100.00
48882;BME280;57063;51.406;-2.402;2023-08-01T06:22:41;99272.56;;;14.77;100.00
48882;BME280;57063;51.406;-2.402;2023-08-01T06:25:07;99266.88;;;14.91;100.00
48882;BME280;57063;51.406;-2.402;2023-08-01T06:27:33;99263.13;;;15.04;100.00
48882;BME280;57063;51.406;-2.402;2023-08-01T06:29:58;99265.44;;;15.07;100.00
48882;BME280;57063;51.406;-2.402;2023-08-01T06:32:23;99270.06;;;15.13;100.00
48882;BME280;57063;51.406;-2.402;2023-08-01T06:34:49;99262.94;;;15.33;100.00
48882;BME280;57063;51.406;-2.402;2023-08-01T06:37:14;99257.75;;;15.51;100.00
48882;BME280;57063;51.406;-2.402;2023-08-01T06:39:39;99268.63;;;16.00;100.00
48882;BME280;57063;51.406;-2.402;2023-08-01T06:42:05;99261.13;;;18.24;86.96
48882;BME280;57063;51.406;-2.402;2023-08-01T06:44:30;99271.94;;;21.34;65.78
48882;BME280;57063;51.406;-2.402;2023-08-01T06:46:56;99270.41;;;22.46;60.43
48882;BME280;57063;51.406;-2.402;2023-08-01T06:49:21;99271.50;;;21.95;59.72
48882;BME280;57063;51.406;-2.402;2023-08-01T06:51:46;99263.84;;;23.11;55.12
48882;BME280;57063;51.406;-2.402;2023-08-01T06:54:12;99268.88;;;22.58;56.48
48882;BME280;57063;51.406;-2.402;2023-08-01T06:56:37;99273.47;;;23.59;53.75
48882;BME280;57063;51.406;-2.402;2023-08-01T06:59:02;99278.09;;;26.03;47.61
48882;BME280;57063;51.406;-2.402;2023-08-01T07:01:28;99270.50;;;25.32;47.47
48882;BME280;57063;51.406;-2.402;2023-08-01T07:03:53;99280.47;;;25.55;48.67
48882;BME280;57063;51.406;-2.402;2023-08-01T07:06:19;99274.44;;;24.64;48.70
48882;BME280;57063;51.406;-2.402;2023-08-01T07:08:44;99271.69;;;24.91;47.67
48882;BME280;57063;51.406;-2.402;2023-08-01T07:11:09;99277.84;;;26.12;45.94
48882;BME280;57063;51.406;-2.402;2023-08-01T07:13:35;99287.31;;;23.81;50.35
48882;BME280;57063;51.406;-2.402;2023-08-01T07:16:00;99282.50;;;22.75;53.59
48882;BME280;57063;51.406;-2.402;2023-08-01T07:18:25;99287.22;;;25.19;48.35
48882;BME280;57063;51.406;-2.402;2023-08-01T07:21:05;99280.19;;;27.12;43.80
48882;BME280;57063;51.406;-2.402;2023-08-01T07:23:33;99282.56;;;27.74;41.28
48882;BME280;57063;51.406;-2.402;2023-08-01T07:25:58;99277.53;;;26.20;44.00
48882;BME280;57063;51.406;-2.402;2023-08-01T07:28:24;99281.00;;;23.82;50.61
48882;BME280;57063;51.406;-2.402;2023-08-01T07:30:58;99279.34;;;24.34;49.92
48882;BME280;57063;51.406;-2.402;2023-08-01T07:33:23;99290.53;;;22.25;52.63
48882;BME280;57063;51.406;-2.402;2023-08-01T07:35:48;99285.25;;;22.95;52.87
48882;BME280;57063;51.406;-2.402;2023-08-01T07:38:14;99281.63;;;23.90;50.63
48882;BME280;57063;51.406;-2.402;2023-08-01T07:40:39;99279.78;;;23.71;50.10
48882;BME280;57063;51.406;-2.402;2023-08-01T07:43:04;99281.88;;;23.07;50.75
48882;BME280;57063;51.406;-2.402;2023-08-01T07:45:33;99282.78;;;23.41;51.63
48882;BME280;57063;51.406;-2.402;2023-08-01T07:47:59;99288.59;;;24.76;48.12
48882;BME280;57063;51.406;-2.402;2023-08-01T07:50:25;99291.06;;;25.80;45.95
48882;BME280;57063;51.406;-2.402;2023-08-01T07:52:51;99294.09;;;25.90;44.67
48882;BME280;57063;51.406;-2.402;2023-08-01T07:55:16;99292.44;;;25.26;45.85
48882;BME280;57063;51.406;-2.402;2023-08-01T07:57:43;99299.22;;;24.30;47.25
48882;BME280;57063;51.406;-2.402;2023-08-01T08:00:09;99304.84;;;24.73;46.68
48882;BME280;57063;51.406;-2.402;2023-08-01T08:02:35;99296.13;;;25.25;46.94
48882;BME280;57063;51.406;-2.402;2023-08-01T08:05:00;99305.44;;;25.34;45.76
48882;BME280;57063;51.406;-2.402;2023-08-01T08:07:26;99312.19;;;25.55;46.04
48882;BME280;57063;51.406;-2.402;2023-08-01T08:09:51;99300.97;;;25.28;45.46
48882;BME280;57063;51.406;-2.402;2023-08-01T08:12:16;99300.06;;;25.02;46.10
48882;BME280;57063;51.406;-2.402;2023-08-01T08:14:42;99305.53;;;25.46;44.73
48882;BME280;57063;51.406;-2.402;2023-08-01T08:17:07;99298.78;;;25.56;44.86
48882;BME280;57063;51.406;-2.402;2023-08-01T08:19:35;99299.00;;;26.30;44.27
48882;BME280;57063;51.406;-2.402;2023-08-01T08:22:00;99292.34;;;26.02;44.45
48882;BME280;57063;51.406;-2.402;2023-08-01T08:24:25;99287.88;;;26.83;42.67
48882;BME280;57063;51.406;-2.402;2023-08-01T08:26:51;99299.81;;;24.45;46.45
48882;BME280;57063;51.406;-2.402;2023-08-01T08:29:16;99298.03;;;24.19;47.18
48882;BME280;57063;51.406;-2.402;2023-08-01T08:31:41;99293.97;;;23.77;47.25
48882;BME280;57063;51.406;-2.402;2023-08-01T08:34:08;99290.47;;;23.63;47.97
48882;BME280;57063;51.406;-2.402;2023-08-01T08:36:33;99295.56;;;23.71;47.79
48882;BME280;57063;51.406;-2.402;2023-08-01T08:38:59;99292.16;;;24.10;47.77
48882;BME280;57063;51.406;-2.402;2023-08-01T08:41:27;99295.97;;;24.34;46.62
48882;BME280;57063;51.406;-2.402;2023-08-01T08:43:56;99283.78;;;24.40;47.32
48882;BME280;57063;51.406;-2.402;2023-08-01T08:46:25;99292.66;;;24.72;46.82
48882;BME280;57063;51.406;-2.402;2023-08-01T08:48:53;99294.75;;;24.37;45.84
48882;BME280;57063;51.406;-2.402;2023-08-01T08:51:19;99293.97;;;24.30;47.96
48882;BME280;57063;51.406;-2.402;2023-08-01T08:53:46;99292.16;;;24.10;46.10
48882;BME280;57063;51.406;-2.402;2023-08-01T08:56:13;99284.00;;;24.52;45.67
48882;BME280;57063;51.406;-2.402;2023-08-01T08:58:39;99286.19;;;25.13;45.52
48882;BME280;57063;51.406;-2.402;2023-08-01T09:01:05;99291.22;;;24.76;44.54
48882;BME280;57063;51.406;-2.402;2023-08-01T09:03:31;99293.06;;;24.69;45.89
48882;BME280;57063;51.406;-2.402;2023-08-01T09:06:11;99298.53;;;25.26;45.14
48882;BME280;57063;51.406;-2.402;2023-08-01T09:08:39;99311.28;;;24.91;45.06
48882;BME280;57063;51.406;-2.402;2023-08-01T09:11:05;99305.50;;;25.52;43.78
48882;BME280;57063;51.406;-2.402;2023-08-01T09:13:31;99308.63;;;25.99;43.55
48882;BME280;57063;51.406;-2.402;2023-08-01T09:15:57;99306.72;;;25.88;44.07
48882;BME280;57063;51.406;-2.402;2023-08-01T09:18:22;99299.50;;;26.20;43.58
48882;BME280;57063;51.406;-2.402;2023-08-01T09:20:49;99308.53;;;26.13;42.35
48882;BME280;57063;51.406;-2.402;2023-08-01T09:23:15;99305.50;;;26.34;43.15
48882;BME280;57063;51.406;-2.402;2023-08-01T09:25:42;99296.91;;;26.57;42.82
48882;BME280;57063;51.406;-2.402;2023-08-01T09:28:21;99298.03;;;27.35;40.93
48882;BME280;57063;51.406;-2.402;2023-08-01T09:30:49;99292.78;;;26.80;41.03
48882;BME280;57063;51.406;-2.402;2023-08-01T09:33:15;99299.16;;;26.17;41.84
48882;BME280;57063;51.406;-2.402;2023-08-01T09:35:40;99299.81;;;26.56;39.80
48882;BME280;57063;51.406;-2.402;2023-08-01T09:38:07;99300.75;;;26.61;39.89
48882;BME280;57063;51.406;-2.402;2023-08-01T09:40:39;99293.13;;;26.53;40.60
48882;BME280;57063;51.406;-2.402;2023-08-01T09:43:06;99291.63;;;26.76;40.93
48882;BME280;57063;51.406;-2.402;2023-08-01T09:45:31;99305.75;;;26.69;40.70
48882;BME280;57063;51.406;-2.402;2023-08-01T09:47:57;99303.28;;;27.23;38.94
48882;BME280;57063;51.406;-2.402;2023-08-01T09:50:26;99292.06;;;27.93;37.93
48882;BME280;57063;51.406;-2.402;2023-08-01T09:52:52;99296.28;;;27.41;40.12
48882;BME280;57063;51.406;-2.402;2023-08-01T09:55:31;99292.25;;;26.89;39.65
48882;BME280;57063;51.406;-2.402;2023-08-01T09:57:58;99289.25;;;27.35;40.04
48882;BME280;57063;51.406;-2.402;2023-08-01T10:00:28;99292.91;;;27.03;41.27
48882;BME280;57063;51.406;-2.402;2023-08-01T10:02:55;99295.28;;;27.42;39.50
48882;BME280;57063;51.406;-2.402;2023-08-01T10:05:22;99292.00;;;27.82;38.56
48882;BME280;57063;51.406;-2.402;2023-08-01T10:07:50;99286.34;;;27.06;39.06
48882;BME280;57063;51.406;-2.402;2023-08-01T10:10:18;99284.97;;;27.03;38.53
48882;BME280;57063;51.406;-2.402;2023-08-01T10:12:45;99288.22;;;26.87;38.67
48882;BME280;57063;51.406;-2.402;2023-08-01T10:15:14;99279.78;;;26.60;39.59
48882;BME280;57063;51.406;-2.402;2023-08-01T10:17:40;99293.91;;;26.54;40.53
48882;BME280;57063;51.406;-2.402;2023-08-01T10:20:06;99291.59;;;27.43;38.63
48882;BME280;57063;51.406;-2.402;2023-08-01T10:22:33;99288.00;;;26.70;40.11
48882;BME280;57063;51.406;-2.402;2023-08-01T10:24:59;99287.84;;;26.46;40.87
48882;BME280;57063;51.406;-2.402;2023-08-01T10:27:25;99282.94;;;26.07;41.30
48882;BME280;57063;51.406;-2.402;2023-08-01T10:32:35;99282.59;;;26.03;41.30
48882;BME280;57063;51.406;-2.402;2023-08-01T10:35:01;99282.03;;;26.38;40.10
48882;BME280;57063;51.406;-2.402;2023-08-01T10:37:27;99291.91;;;26.86;40.07
48882;BME280;57063;51.406;-2.402;2023-08-01T10:39:59;99285.78;;;27.22;38.36
48882;BME280;57063;51.406;-2.402;2023-08-01T10:42:40;99292.50;;;26.69;40.15
48882;BME280;57063;51.406;-2.402;2023-08-01T10:45:06;99303.06;;;27.25;39.60
48882;BME280;57063;51.406;-2.402;2023-08-01T10:47:32;99299.25;;;27.74;37.92
48882;BME280;57063;51.406;-2.402;2023-08-01T10:49:57;99291.66;;;27.66;38.85
48882;BME280;57063;51.406;-2.402;2023-08-01T10:52:27;99282.91;;;27.78;39.18
48882;BME280;57063;51.406;-2.402;2023-08-01T10:55:00;99289.59;;;27.68;39.30
48882;BME280;57063;51.406;-2.402;2023-08-01T10:57:30;99280.06;;;27.37;40.14
48882;BME280;57063;51.406;-2.402;2023-08-01T10:59:56;99273.16;;;26.87;40.53
48882;BME280;57063;51.406;-2.402;2023-08-01T11:02:26;99270.00;;;27.09;40.18
48882;BME280;57063;51.406;-2.402;2023-08-01T11:05:03;99273.13;;;26.51;40.60
48882;BME280;57063;51.406;-2.402;2023-08-01T11:07:30;99271.09;;;26.53;42.35
48882;BME280;57063;51.406;-2.402;2023-08-01T11:10:10;99274.22;;;26.68;42.12
48882;BME280;57063;51.406;-2.402;2023-08-01T11:12:36;99276.88;;;26.43;40.72
48882;BME280;57063;51.406;-2.402;2023-08-01T11:15:03;99283.97;;;27.04;40.81
48882;BME280;57063;51.406;-2.402;2023-08-01T11:17:31;99284.50;;;26.58;40.28
48882;BME280;57063;51.406;-2.402;2023-08-01T11:20:07;99282.31;;;27.03;39.98
48882;BME280;57063;51.406;-2.402;2023-08-01T11:22:34;99274.59;;;27.20;38.11
48882;BME280;57063;51.406;-2.402;2023-08-01T11:25:00;99278.41;;;27.06;39.74
48882;BME280;57063;51.406;-2.402;2023-08-01T11:27:26;99278.56;;;26.19;41.98
48882;BME280;57063;51.406;-2.402;2023-08-01T11:29:53;99275.22;;;26.48;40.18
48882;BME280;57063;51.406;-2.402;2023-08-01T11:32:20;99269.97;;;26.05;41.22
48882;BME280;57063;51.406;-2.402;2023-08-01T11:36:09;99267.91;;;26.07;41.61
48882;BME280;57063;51.406;-2.402;2023-08-01T11:38:34;99272.53;;;25.61;43.03
48882;BME280;57063;51.406;-2.402;2023-08-01T11:41:00;99266.88;;;25.83;43.01
48882;BME280;57063;51.406;-2.402;2023-08-01T11:43:26;99267.22;;;25.61;42.55
48882;BME280;57063;51.406;-2.402;2023-08-01T11:45:56;99269.72;;;26.07;42.99
48882;BME280;57063;51.406;-2.402;2023-08-01T11:48:24;99276.25;;;26.29;43.05
48882;BME280;57063;51.406;-2.402;2023-08-01T11:50:56;99273.81;;;25.77;42.90
48882;BME280;57063;51.406;-2.402;2023-08-01T11:53:43;99278.75;;;25.42;43.75
48882;BME280;57063;51.406;-2.402;2023-08-01T11:56:21;99276.31;;;25.40;44.23
48882;BME280;57063;51.406;-2.402;2023-08-01T11:58:49;99270.38;;;25.45;44.38
48882;BME280;57063;51.406;-2.402;2023-08-01T12:01:14;99268.94;;;25.49;43.23
48882;BME280;57063;51.406;-2.402;2023-08-01T12:06:09;99262.09;;;25.03;44.17
48882;BME280;57063;51.406;-2.402;2023-08-01T12:08:34;99259.75;;;25.58;42.75
48882;BME280;57063;51.406;-2.402;2023-08-01T12:11:00;99255.53;;;25.76;43.16
48882;BME280;57063;51.406;-2.402;2023-08-01T12:13:26;99262.81;;;25.80;43.77
48882;BME280;57063;51.406;-2.402;2023-08-01T12:15:54;99259.75;;;27.01;41.48
48882;BME280;57063;51.406;-2.402;2023-08-01T12:18:28;99261.34;;;27.20;39.15
48882;BME280;57063;51.406;-2.402;2023-08-01T12:20:54;99257.44;;;26.74;40.99
48882;BME280;57063;51.406;-2.402;2023-08-01T12:23:20;99255.38;;;27.25;40.63
48882;BME280;57063;51.406;-2.402;2023-08-01T12:25:46;99248.31;;;26.70;39.75
48882;BME280;57063;51.406;-2.402;2023-08-01T12:28:16;99258.91;;;25.58;42.74
48882;BME280;57063;51.406;-2.402;2023-08-01T12:30:43;99254.56;;;25.70;43.10
48882;BME280;57063;51.406;-2.402;2023-08-01T12:33:09;99258.53;;;25.29;43.76
48882;BME280;57063;51.406;-2.402;2023-08-01T12:35:38;99258.56;;;25.23;43.15
48882;BME280;57063;51.406;-2.402;2023-08-01T12:38:03;99258.75;;;24.83;42.89
48882;BME280;57063;51.406;-2.402;2023-08-01T12:40:29;99262.31;;;24.23;45.59
48882;BME280;57063;51.406;-2.402;2023-08-01T12:42:54;99260.34;;;23.85;46.42
48882;BME280;57063;51.406;-2.402;2023-08-01T12:45:19;99252.94;;;24.54;44.71
48882;BME280;57063;51.406;-2.402;2023-08-01T12:47:45;99255.44;;;24.09;45.45